createdAt,value
2019-02-25T00:02:36.863Z,1.17
2019-02-25T00:07:42.445Z,1.15
2019-02-25T00:12:48.615Z,1.13
2019-02-25T00:17:54.547Z,1.39
2019-02-25T00:23:00.196Z,1.07
2019-02-25T00:28:08.296Z,1.08
2019-02-25T00:33:16.031Z,1.00
2019-02-25T00:38:21.332Z,1.02
2019-02-25T00:43:30.318Z,1.04
2019-02-25T00:48:38.931Z,0.95
2019-02-25T00:53:44.603Z,0.92
2019-02-25T00:58:52.037Z,1.03
2019-02-25T01:04:00.750Z,0.98
2019-02-25T01:09:28.673Z,0.84
2019-02-25T01:14:35.925Z,0.85
2019-02-25T01:19:43.421Z,1.01
2019-02-25T01:24:48.977Z,0.84
2019-02-25T01:29:54.450Z,0.96
2019-02-25T01:34:59.976Z,0.74
2019-02-25T01:40:18.381Z,0.71
2019-02-25T01:45:22.500Z,0.66
2019-02-25T01:50:27.913Z,0.74
2019-02-25T01:55:33.517Z,0.67
2019-02-25T02:00:51.641Z,0.66
2019-02-25T02:05:57.539Z,0.67
2019-02-25T02:11:03.524Z,0.97
2019-02-25T02:16:09.507Z,0.84
2019-02-25T02:21:15.108Z,0.70
2019-02-25T02:26:30.849Z,0.72
2019-02-25T02:31:39.899Z,0.81
2019-02-25T02:36:45.874Z,0.34
2019-02-25T02:42:14.485Z,0.87
2019-02-25T02:47:44.419Z,0.77
2019-02-25T02:52:50.009Z,0.81
2019-02-25T02:57:55.917Z,0.61
2019-02-25T03:03:01.558Z,0.86
2019-02-25T03:08:07.542Z,0.53
2019-02-25T03:13:13.652Z,0.50
2019-02-25T03:18:27.569Z,0.58
2019-02-25T03:23:33.135Z,0.60
2019-02-25T03:28:38.640Z,0.74
2019-02-25T03:33:45.127Z,0.69
2019-02-25T03:38:51.095Z,0.89
2019-02-25T03:43:56.893Z,0.71
2019-02-25T03:49:04.056Z,0.74
2019-02-25T03:54:14.723Z,0.72
2019-02-25T03:59:21.400Z,0.62
2019-02-25T04:04:27.595Z,0.49
2019-02-25T04:09:33.086Z,0.58
2019-02-25T04:14:38.743Z,0.59
2019-02-25T04:19:44.262Z,0.56
2019-02-25T04:24:49.843Z,0.69
2019-02-25T04:29:56.974Z,0.60
2019-02-25T04:35:12.633Z,0.46
2019-02-25T04:40:16.009Z,0.41
2019-02-25T04:45:37.727Z,0.50
2019-02-25T04:50:44.279Z,0.23
2019-02-25T04:56:02.201Z,0.47
2019-02-25T05:01:09.520Z,0.44
2019-02-25T05:06:19.594Z,0.33
2019-02-25T05:11:32.193Z,0.49
2019-02-25T05:16:39.909Z,0.41
2019-02-25T05:21:44.938Z,0.13
2019-02-25T05:26:52.629Z,0.37
2019-02-25T05:32:00.734Z,0.54
2019-02-25T05:37:06.426Z,0.57
2019-02-25T05:42:15.179Z,0.41
2019-02-25T05:47:22.558Z,0.47
2019-02-25T05:52:30.445Z,0.38
2019-02-25T05:57:40.713Z,0.47
2019-02-25T06:02:46.300Z,0.29
2019-02-25T06:07:51.864Z,-0.08
2019-02-25T06:12:59.121Z,0.43
2019-02-25T06:18:05.584Z,0.51
2019-02-25T06:23:11.696Z,0.45
2019-02-25T06:28:17.296Z,0.71
2019-02-25T06:33:23.009Z,0.77
2019-02-25T06:38:29.479Z,0.99
2019-02-25T06:43:37.415Z,1.07
2019-02-25T06:48:45.767Z,1.30
2019-02-25T06:54:05.781Z,1.52
2019-02-25T06:59:11.683Z,1.81
2019-02-25T07:04:26.668Z,2.14
2019-02-25T07:09:54.287Z,2.41
2019-02-25T07:15:26.507Z,2.41
2019-02-25T07:20:58.444Z,3.12
2019-02-25T07:26:21.300Z,3.50
2019-02-25T07:32:01.539Z,3.73
2019-02-25T07:37:25.872Z,4.01
2019-02-25T07:42:56.473Z,4.43
2019-02-25T07:48:13.679Z,4.31
2019-02-25T07:53:41.776Z,4.90
2019-02-25T07:59:04.887Z,5.06
2019-02-25T08:04:36.725Z,5.07
2019-02-25T08:09:52.631Z,5.48
2019-02-25T08:15:25.469Z,6.22
2019-02-25T08:21:03.859Z,6.32
2019-02-25T08:26:32.170Z,6.61
2019-02-25T08:31:54.408Z,6.73
2019-02-25T08:38:08.174Z,7.54
2019-02-25T08:43:40.891Z,7.96
2019-02-25T08:48:59.184Z,8.57
2019-02-25T08:54:06.343Z,8.76
2019-02-25T08:59:11.864Z,8.43
2019-02-25T09:04:17.486Z,8.82
2019-02-25T09:09:22.919Z,9.45
2019-02-25T09:14:28.884Z,10.36
2019-02-25T09:19:34.317Z,10.72
2019-02-25T09:24:40.885Z,11.32
2019-02-25T09:29:48.434Z,11.45
2019-02-25T09:34:53.986Z,11.44
2019-02-25T09:39:59.736Z,11.87
2019-02-25T09:45:29.809Z,11.99
2019-02-25T09:50:35.375Z,11.61
2019-02-25T09:55:41.444Z,11.82
2019-02-25T10:00:47.123Z,12.20
2019-02-25T10:05:54.825Z,11.61
2019-02-25T10:11:01.886Z,11.45
2019-02-25T10:16:07.645Z,11.37
2019-02-25T10:21:13.217Z,11.52
2019-02-25T10:26:22.285Z,11.96
2019-02-25T10:31:42.193Z,12.19
2019-02-25T10:36:52.375Z,12.36
2019-02-25T10:42:08.534Z,12.58
2019-02-25T10:47:15.651Z,12.25
2019-02-25T10:52:21.899Z,12.33
2019-02-25T10:57:29.169Z,12.91
2019-02-25T11:02:43.874Z,12.16
2019-02-25T11:07:42.212Z,13.12
2019-02-25T11:12:55.506Z,13.36
2019-02-25T11:18:00.809Z,13.73
2019-02-25T11:23:11.818Z,13.17
2019-02-25T11:28:25.555Z,13.12
2019-02-25T11:33:27.422Z,13.44
2019-02-25T11:38:38.927Z,13.60
2019-02-25T11:43:52.844Z,13.47
2019-02-25T11:48:59.769Z,13.40
2019-02-25T11:54:05.781Z,13.81
2019-02-25T11:59:11.377Z,14.15
2019-02-25T12:04:19.175Z,14.11
2019-02-25T12:09:24.691Z,13.20
2019-02-25T12:14:30.544Z,13.24
2019-02-25T12:19:36.023Z,13.52
2019-02-25T12:24:41.564Z,13.46
2019-02-25T12:29:47.075Z,13.37
2019-02-25T12:34:52.737Z,13.41
2019-02-25T12:39:58.238Z,13.52
2019-02-25T12:45:03.973Z,13.63
2019-02-25T12:50:21.946Z,13.87
2019-02-25T12:55:29.389Z,13.36
2019-02-25T13:00:35.046Z,13.14
2019-02-25T13:05:40.980Z,13.42
2019-02-25T13:10:46.494Z,13.52
2019-02-25T13:15:52.674Z,13.98
2019-02-25T13:20:58.141Z,14.24
2019-02-25T13:26:07.663Z,14.11
2019-02-25T13:31:13.443Z,13.55
2019-02-25T13:36:19.441Z,13.66
2019-02-25T13:41:24.998Z,13.66
2019-02-25T13:46:31.052Z,13.71
2019-02-25T13:51:36.580Z,13.98
2019-02-25T13:56:42.386Z,13.78
2019-02-25T14:01:48.246Z,13.66
2019-02-25T14:06:54.719Z,13.85
2019-02-25T14:12:01.139Z,14.03
2019-02-25T14:17:14.976Z,13.75
2019-02-25T14:22:20.693Z,14.10
2019-02-25T14:27:29.407Z,14.00
2019-02-25T14:32:42.133Z,13.87
2019-02-25T14:37:47.814Z,14.02
2019-02-25T14:42:56.921Z,13.86
2019-02-25T14:48:05.400Z,13.87
2019-02-25T14:53:11.551Z,13.78
2019-02-25T14:58:17.919Z,13.23
2019-02-25T15:03:26.951Z,13.09
2019-02-25T15:08:32.415Z,13.12
2019-02-25T15:13:39.096Z,13.13
2019-02-25T15:18:44.845Z,12.97
2019-02-25T15:23:50.412Z,13.13
2019-02-25T15:28:58.239Z,13.12
2019-02-25T15:34:04.639Z,12.93
2019-02-25T15:39:11.917Z,12.68
2019-02-25T15:44:17.645Z,12.73
2019-02-25T15:49:26.142Z,12.53
2019-02-25T15:54:33.321Z,12.50
2019-02-25T15:59:39.825Z,12.43
2019-02-25T16:04:45.478Z,12.13
2019-02-25T16:09:51.693Z,11.95
2019-02-25T16:14:57.280Z,11.87
2019-02-25T16:20:04.356Z,11.67
2019-02-25T16:25:27.606Z,11.52
2019-02-25T16:30:36.038Z,11.43
2019-02-25T16:35:43.038Z,11.15
2019-02-25T16:40:54.621Z,11.05
2019-02-25T16:45:59.479Z,10.74
2019-02-25T16:51:07.895Z,10.57
2019-02-25T16:56:17.702Z,10.71
2019-02-25T17:01:30.401Z,10.14
2019-02-25T17:06:37.406Z,9.80
2019-02-25T17:11:45.610Z,9.77
2019-02-25T17:16:51.950Z,9.52
2019-02-25T17:21:58.872Z,9.15
2019-02-25T17:27:06.989Z,9.34
2019-02-25T17:32:16.765Z,9.30
2019-02-25T17:37:23.097Z,9.19
2019-02-25T17:42:33.097Z,8.90
2019-02-25T17:47:39.608Z,9.00
2019-02-25T17:52:55.410Z,8.73
2019-02-25T17:58:01.382Z,8.68
2019-02-25T18:03:11.934Z,8.67
2019-02-25T18:08:19.676Z,8.47
2019-02-25T18:13:26.368Z,8.37
2019-02-25T18:18:33.157Z,8.33
2019-02-25T18:23:38.813Z,8.50
2019-02-25T18:28:45.876Z,8.63
2019-02-25T18:33:52.877Z,8.25
2019-02-25T18:39:01.089Z,8.20
2019-02-25T18:44:09.258Z,8.16
2019-02-25T18:49:15.846Z,8.58
2019-02-25T18:54:25.546Z,8.99
2019-02-25T18:59:35.060Z,8.78
2019-02-25T19:04:41.376Z,8.75
2019-02-25T19:09:49.316Z,8.67
2019-02-25T19:15:03.131Z,8.57
2019-02-25T19:20:22.396Z,8.57
2019-02-25T19:25:30.123Z,8.28
2019-02-25T19:30:36.597Z,8.14
2019-02-25T19:35:45.688Z,8.21
2019-02-25T19:40:55.154Z,8.26
2019-02-25T19:46:01.854Z,8.31
2019-02-25T19:51:14.904Z,8.50
2019-02-25T19:56:32.274Z,8.34
2019-02-25T20:01:40.325Z,8.23
2019-02-25T20:06:56.115Z,7.91
2019-02-25T20:12:05.556Z,7.91
2019-02-25T20:17:12.753Z,8.05
2019-02-25T20:22:19.623Z,7.98
2019-02-25T20:27:29.431Z,8.23
2019-02-25T20:32:38.564Z,7.88
2019-02-25T20:37:46.402Z,7.81
2019-02-25T20:42:56.094Z,7.31
2019-02-25T20:48:06.973Z,7.38
2019-02-25T20:53:14.860Z,7.60
2019-02-25T20:58:23.393Z,7.46
2019-02-25T21:03:29.458Z,7.33
2019-02-25T21:08:37.467Z,7.50
2019-02-25T21:13:43.279Z,7.34
2019-02-25T21:18:59.537Z,7.28
2019-02-25T21:24:31.037Z,6.87
2019-02-25T21:29:38.827Z,6.72
2019-02-25T21:34:50.113Z,6.90
2019-02-25T21:39:53.538Z,6.69
2019-02-25T21:45:00.311Z,6.66
2019-02-25T21:50:09.499Z,6.52
2019-02-25T21:55:23.827Z,6.35
2019-02-25T22:00:32.892Z,6.76
2019-02-25T22:05:40.267Z,6.34
2019-02-25T22:10:46.310Z,6.58
2019-02-25T22:15:52.019Z,6.37
2019-02-25T22:20:57.749Z,6.13
2019-02-25T22:26:03.523Z,5.32
2019-02-25T22:31:11.020Z,5.59
2019-02-25T22:36:16.490Z,5.54
2019-02-25T22:41:22.930Z,5.78
2019-02-25T22:46:32.549Z,5.33
2019-02-25T22:51:37.591Z,5.57
2019-02-25T22:56:43.306Z,5.76
2019-02-25T23:01:52.064Z,5.66
2019-02-25T23:06:59.047Z,5.73
2019-02-25T23:12:06.112Z,5.58
2019-02-25T23:17:20.402Z,5.60
2019-02-25T23:22:28.223Z,5.60
2019-02-25T23:27:38.796Z,5.37
2019-02-25T23:32:45.376Z,5.49
2019-02-25T23:37:51.935Z,5.52
2019-02-25T23:42:58.972Z,5.70
2019-02-25T23:55:01.946Z,5.89
